sensor_id;sensor_type;location;lat;lon;timestamp;P1;durP1;ratioP1;P2;durP2;ratioP2
59555;SDS011;45374;52.746;6.304;2022-10-22T00:01:32;53.83;;;19.15;;
59555;SDS011;45374;52.746;6.304;2022-10-22T00:03:58;47.20;;;19.38;;
59555;SDS011;45374;52.746;6.304;2022-10-22T00:06:24;51.63;;;18.30;;
59555;SDS011;45374;52.746;6.304;2022-10-22T00:08:50;51.42;;;18.55;;
59555;SDS011;45374;52.746;6.304;2022-10-22T00:11:17;44.45;;;18.33;;
59555;SDS011;45374;52.746;6.304;2022-10-22T00:13:43;53.50;;;20.05;;
59555;SDS011;45374;52.746;6.304;2022-10-22T00:16:09;51.10;;;19.27;;
59555;SDS011;45374;52.746;6.304;2022-10-22T00:18:35;51.60;;;19.30;;
59555;SDS011;45374;52.746;6.304;2022-10-22T00:21:02;51.70;;;18.45;;
59555;SDS011;45374;52.746;6.304;2022-10-22T00:23:27;58.28;;;19.70;;
59555;SDS011;45374;52.746;6.304;2022-10-22T00:25:53;52.17;;;19.20;;
59555;SDS011;45374;52.746;6.304;2022-10-22T00:28:19;43.63;;;18.75;;
59555;SDS011;45374;52.746;6.304;2022-10-22T00:30:45;51.28;;;19.10;;
59555;SDS011;45374;52.746;6.304;2022-10-22T00:33:11;51.47;;;18.77;;
59555;SDS011;45374;52.746;6.304;2022-10-22T00:35:36;53.75;;;17.98;;
59555;SDS011;45374;52.746;6.304;2022-10-22T00:38:02;46.00;;;18.08;;
59555;SDS011;45374;52.746;6.304;2022-10-22T00:40:28;55.88;;;18.80;;
59555;SDS011;45374;52.746;6.304;2022-10-22T00:42:54;46.63;;;18.85;;
59555;SDS011;45374;52.746;6.304;2022-10-22T00:45:21;45.97;;;18.75;;
59555;SDS011;45374;52.746;6.304;2022-10-22T00:48:04;46.42;;;19.27;;
59555;SDS011;45374;52.746;6.304;2022-10-22T00:50:40;55.35;;;20.02;;
59555;SDS011;45374;52.746;6.304;2022-10-22T00:53:23;55.83;;;20.42;;
59555;SDS011;45374;52.746;6.304;2022-10-22T00:55:54;50.70;;;18.80;;
59555;SDS011;45374;52.746;6.304;2022-10-22T00:58:21;57.83;;;19.77;;
59555;SDS011;45374;52.746;6.304;2022-10-22T01:00:50;51.63;;;19.80;;
59555;SDS011;45374;52.746;6.304;2022-10-22T01:03:16;59.28;;;21.02;;
59555;SDS011;45374;52.746;6.304;2022-10-22T01:05:42;51.72;;;20.10;;
59555;SDS011;45374;52.746;6.304;2022-10-22T01:08:17;63.33;;;21.55;;
59555;SDS011;45374;52.746;6.304;2022-10-22T01:13:51;57.78;;;20.98;;
59555;SDS011;45374;52.746;6.304;2022-10-22T01:21:45;53.38;;;20.65;;
59555;SDS011;45374;52.746;6.304;2022-10-22T01:29:33;52.88;;;20.33;;
59555;SDS011;45374;52.746;6.304;2022-10-22T01:32:07;54.40;;;21.60;;
59555;SDS011;45374;52.746;6.304;2022-10-22T01:34:37;66.05;;;21.65;;
59555;SDS011;45374;52.746;6.304;2022-10-22T01:37:05;53.05;;;20.27;;
59555;SDS011;45374;52.746;6.304;2022-10-22T01:39:31;54.22;;;21.30;;
59555;SDS011;45374;52.746;6.304;2022-10-22T01:42:00;59.53;;;22.30;;
59555;SDS011;45374;52.746;6.304;2022-10-22T01:44:30;59.97;;;21.05;;
59555;SDS011;45374;52.746;6.304;2022-10-22T01:47:17;56.00;;;21.52;;
59555;SDS011;45374;52.746;6.304;2022-10-22T01:52:29;73.05;;;22.33;;
59555;SDS011;45374;52.746;6.304;2022-10-22T01:55:38;53.20;;;20.67;;
59555;SDS011;45374;52.746;6.304;2022-10-22T02:01:12;71.07;;;24.30;;
59555;SDS011;45374;52.746;6.304;2022-10-22T02:03:50;55.22;;;22.85;;
59555;SDS011;45374;52.746;6.304;2022-10-22T02:06:37;63.83;;;22.42;;
59555;SDS011;45374;52.746;6.304;2022-10-22T02:09:05;68.80;;;21.67;;
59555;SDS011;45374;52.746;6.304;2022-10-22T02:11:32;65.95;;;21.98;;
59555;SDS011;45374;52.746;6.304;2022-10-22T02:13:58;79.40;;;23.88;;
59555;SDS011;45374;52.746;6.304;2022-10-22T02:16:27;64.35;;;22.00;;
59555;SDS011;45374;52.746;6.304;2022-10-22T02:18:57;62.15;;;21.17;;
59555;SDS011;45374;52.746;6.304;2022-10-22T02:21:28;62.38;;;22.10;;
59555;SDS011;45374;52.746;6.304;2022-10-22T02:23:54;61.83;;;22.20;;
59555;SDS011;45374;52.746;6.304;2022-10-22T02:26:31;66.10;;;20.55;;
59555;SDS011;45374;52.746;6.304;2022-10-22T02:29:10;58.53;;;21.15;;
59555;SDS011;45374;52.746;6.304;2022-10-22T02:31:45;59.90;;;20.77;;
59555;SDS011;45374;52.746;6.304;2022-10-22T02:34:14;63.60;;;22.02;;
59555;SDS011;45374;52.746;6.304;2022-10-22T02:36:43;56.55;;;22.42;;
59555;SDS011;45374;52.746;6.304;2022-10-22T02:39:10;55.15;;;20.88;;
59555;SDS011;45374;52.746;6.304;2022-10-22T02:41:38;58.85;;;21.45;;
59555;SDS011;45374;52.746;6.304;2022-10-22T02:44:06;71.50;;;22.58;;
59555;SDS011;45374;52.746;6.304;2022-10-22T02:46:34;62.35;;;23.05;;
59555;SDS011;45374;52.746;6.304;2022-10-22T02:49:00;70.63;;;25.25;;
59555;SDS011;45374;52.746;6.304;2022-10-22T02:51:25;65.57;;;23.17;;
59555;SDS011;45374;52.746;6.304;2022-10-22T02:53:51;56.40;;;22.45;;
59555;SDS011;45374;52.746;6.304;2022-10-22T02:56:16;65.85;;;22.77;;
59555;SDS011;45374;52.746;6.304;2022-10-22T02:58:42;84.85;;;24.92;;
59555;SDS011;45374;52.746;6.304;2022-10-22T03:01:08;66.60;;;22.55;;
59555;SDS011;45374;52.746;6.304;2022-10-22T03:03:33;65.80;;;22.83;;
59555;SDS011;45374;52.746;6.304;2022-10-22T03:05:59;61.05;;;22.88;;
59555;SDS011;45374;52.746;6.304;2022-10-22T03:08:24;66.53;;;23.58;;
59555;SDS011;45374;52.746;6.304;2022-10-22T03:10:50;62.17;;;23.08;;
59555;SDS011;45374;52.746;6.304;2022-10-22T03:13:16;64.07;;;22.63;;
59555;SDS011;45374;52.746;6.304;2022-10-22T03:15:41;64.38;;;22.95;;
59555;SDS011;45374;52.746;6.304;2022-10-22T03:18:07;70.28;;;22.92;;
59555;SDS011;45374;52.746;6.304;2022-10-22T03:20:33;67.55;;;23.52;;
59555;SDS011;45374;52.746;6.304;2022-10-22T03:22:59;61.78;;;23.02;;
59555;SDS011;45374;52.746;6.304;2022-10-22T03:25:26;70.63;;;23.92;;
59555;SDS011;45374;52.746;6.304;2022-10-22T03:27:52;67.72;;;22.50;;
59555;SDS011;45374;52.746;6.304;2022-10-22T03:30:19;64.70;;;23.42;;
59555;SDS011;45374;52.746;6.304;2022-10-22T03:32:45;63.03;;;23.77;;
59555;SDS011;45374;52.746;6.304;2022-10-22T03:35:11;67.97;;;22.23;;
59555;SDS011;45374;52.746;6.304;2022-10-22T03:37:36;68.70;;;25.05;;
59555;SDS011;45374;52.746;6.304;2022-10-22T03:40:03;69.55;;;23.98;;
59555;SDS011;45374;52.746;6.304;2022-10-22T03:42:31;64.35;;;23.35;;
59555;SDS011;45374;52.746;6.304;2022-10-22T03:44:57;65.57;;;22.55;;
59555;SDS011;45374;52.746;6.304;2022-10-22T03:47:22;72.03;;;24.27;;
59555;SDS011;45374;52.746;6.304;2022-10-22T03:49:49;66.63;;;22.70;;
59555;SDS011;45374;52.746;6.304;2022-10-22T03:52:15;67.10;;;23.92;;
59555;SDS011;45374;52.746;6.304;2022-10-22T03:54:41;65.60;;;22.63;;
59555;SDS011;45374;52.746;6.304;2022-10-22T03:57:07;67.43;;;23.20;;
59555;SDS011;45374;52.746;6.304;2022-10-22T03:59:37;63.03;;;23.17;;
59555;SDS011;45374;52.746;6.304;2022-10-22T04:02:05;69.60;;;23.90;;
59555;SDS011;45374;52.746;6.304;2022-10-22T04:04:31;68.75;;;24.98;;
59555;SDS011;45374;52.746;6.304;2022-10-22T04:06:56;85.25;;;25.02;;
59555;SDS011;45374;52.746;6.304;2022-10-22T04:09:22;78.15;;;23.95;;
59555;SDS011;45374;52.746;6.304;2022-10-22T04:11:48;69.32;;;23.05;;
59555;SDS011;45374;52.746;6.304;2022-10-22T04:14:13;70.97;;;24.17;;
59555;SDS011;45374;52.746;6.304;2022-10-22T04:16:39;85.00;;;26.27;;
59555;SDS011;45374;52.746;6.304;2022-10-22T04:19:05;81.75;;;26.17;;
59555;SDS011;45374;52.746;6.304;2022-10-22T04:21:31;85.88;;;24.88;;
59555;SDS011;45374;52.746;6.304;2022-10-22T04:23:57;79.93;;;25.63;;
59555;SDS011;45374;52.746;6.304;2022-10-22T04:26:23;77.00;;;25.77;;
59555;SDS011;45374;52.746;6.304;2022-10-22T04:28:49;72.43;;;25.50;;
59555;SDS011;45374;52.746;6.304;2022-10-22T04:31:17;72.07;;;25.48;;
59555;SDS011;45374;52.746;6.304;2022-10-22T04:33:51;68.93;;;25.17;;
59555;SDS011;45374;52.746;6.304;2022-10-22T04:36:21;78.68;;;26.58;;
59555;SDS011;45374;52.746;6.304;2022-10-22T04:38:50;75.13;;;25.52;;
59555;SDS011;45374;52.746;6.304;2022-10-22T04:41:19;87.63;;;28.00;;
59555;SDS011;45374;52.746;6.304;2022-10-22T04:43:48;81.57;;;25.75;;
59555;SDS011;45374;52.746;6.304;2022-10-22T04:46:14;75.30;;;25.92;;
59555;SDS011;45374;52.746;6.304;2022-10-22T04:48:41;86.03;;;25.65;;
59555;SDS011;45374;52.746;6.304;2022-10-22T04:51:09;85.93;;;27.45;;
59555;SDS011;45374;52.746;6.304;2022-10-22T04:53:37;94.60;;;27.63;;
59555;SDS011;45374;52.746;6.304;2022-10-22T04:56:14;85.35;;;26.45;;
59555;SDS011;45374;52.746;6.304;2022-10-22T04:58:44;87.75;;;27.27;;
59555;SDS011;45374;52.746;6.304;2022-10-22T05:01:13;82.88;;;27.27;;
59555;SDS011;45374;52.746;6.304;2022-10-22T05:03:40;77.38;;;25.98;;
59555;SDS011;45374;52.746;6.304;2022-10-22T05:06:06;83.63;;;27.17;;
59555;SDS011;45374;52.746;6.304;2022-10-22T05:08:32;82.18;;;27.52;;
59555;SDS011;45374;52.746;6.304;2022-10-22T05:10:58;87.35;;;27.02;;
59555;SDS011;45374;52.746;6.304;2022-10-22T05:13:23;72.97;;;25.27;;
59555;SDS011;45374;52.746;6.304;2022-10-22T05:15:49;86.60;;;26.70;;
59555;SDS011;45374;52.746;6.304;2022-10-22T05:18:14;81.93;;;26.80;;
59555;SDS011;45374;52.746;6.304;2022-10-22T05:20:40;96.53;;;28.27;;
59555;SDS011;45374;52.746;6.304;2022-10-22T05:23:06;86.55;;;26.02;;
59555;SDS011;45374;52.746;6.304;2022-10-22T05:25:36;78.63;;;25.60;;
59555;SDS011;45374;52.746;6.304;2022-10-22T05:28:02;79.72;;;26.05;;
59555;SDS011;45374;52.746;6.304;2022-10-22T05:30:28;81.60;;;26.45;;
59555;SDS011;45374;52.746;6.304;2022-10-22T05:32:53;76.45;;;25.60;;
59555;SDS011;45374;52.746;6.304;2022-10-22T05:35:19;84.65;;;25.27;;
59555;SDS011;45374;52.746;6.304;2022-10-22T05:37:45;94.07;;;26.73;;
59555;SDS011;45374;52.746;6.304;2022-10-22T05:40:10;86.50;;;25.33;;
59555;SDS011;45374;52.746;6.304;2022-10-22T05:42:36;65.63;;;23.20;;
59555;SDS011;45374;52.746;6.304;2022-10-22T05:45:02;81.88;;;24.88;;
59555;SDS011;45374;52.746;6.304;2022-10-22T05:47:28;68.70;;;23.48;;
59555;SDS011;45374;52.746;6.304;2022-10-22T05:49:54;65.28;;;21.70;;
59555;SDS011;45374;52.746;6.304;2022-10-22T05:52:21;72.93;;;23.42;;
59555;SDS011;45374;52.746;6.304;2022-10-22T05:54:47;80.20;;;22.73;;
59555;SDS011;45374;52.746;6.304;2022-10-22T05:57:13;77.47;;;22.17;;
59555;SDS011;45374;52.746;6.304;2022-10-22T05:59:38;67.03;;;22.23;;
59555;SDS011;45374;52.746;6.304;2022-10-22T06:02:04;64.05;;;22.35;;
59555;SDS011;45374;52.746;6.304;2022-10-22T06:04:30;62.97;;;22.30;;
59555;SDS011;45374;52.746;6.304;2022-10-22T06:06:55;67.32;;;22.00;;
59555;SDS011;45374;52.746;6.304;2022-10-22T06:09:31;65.72;;;22.40;;
59555;SDS011;45374;52.746;6.304;2022-10-22T06:11:59;73.63;;;23.58;;
59555;SDS011;45374;52.746;6.304;2022-10-22T06:14:25;70.38;;;22.77;;
59555;SDS011;45374;52.746;6.304;2022-10-22T06:16:51;68.95;;;22.13;;
59555;SDS011;45374;52.746;6.304;2022-10-22T06:19:18;78.47;;;22.90;;
59555;SDS011;45374;52.746;6.304;2022-10-22T06:21:46;70.53;;;21.25;;
59555;SDS011;45374;52.746;6.304;2022-10-22T06:24:12;73.43;;;22.50;;
59555;SDS011;45374;52.746;6.304;2022-10-22T06:26:38;67.72;;;21.90;;
59555;SDS011;45374;52.746;6.304;2022-10-22T06:29:04;66.07;;;20.60;;
59555;SDS011;45374;52.746;6.304;2022-10-22T06:31:30;70.75;;;20.92;;
59555;SDS011;45374;52.746;6.304;2022-10-22T06:34:02;66.60;;;21.63;;
59555;SDS011;45374;52.746;6.304;2022-10-22T06:36:32;75.57;;;20.67;;
59555;SDS011;45374;52.746;6.304;2022-10-22T06:38:58;65.20;;;20.55;;
59555;SDS011;45374;52.746;6.304;2022-10-22T06:41:24;67.53;;;21.67;;
59555;SDS011;45374;52.746;6.304;2022-10-22T06:43:50;63.42;;;20.08;;
59555;SDS011;45374;52.746;6.304;2022-10-22T06:46:18;63.85;;;19.65;;
59555;SDS011;45374;52.746;6.304;2022-10-22T06:48:49;63.72;;;19.73;;
59555;SDS011;45374;52.746;6.304;2022-10-22T06:51:15;64.00;;;19.60;;
59555;SDS011;45374;52.746;6.304;2022-10-22T06:53:41;55.53;;;19.33;;
59555;SDS011;45374;52.746;6.304;2022-10-22T06:56:07;58.90;;;20.25;;
59555;SDS011;45374;52.746;6.304;2022-10-22T06:58:35;59.95;;;18.60;;
59555;SDS011;45374;52.746;6.304;2022-10-22T07:03:34;70.55;;;19.20;;
59555;SDS011;45374;52.746;6.304;2022-10-22T07:06:00;60.90;;;19.60;;
59555;SDS011;45374;52.746;6.304;2022-10-22T07:08:27;55.70;;;17.85;;
59555;SDS011;45374;52.746;6.304;2022-10-22T07:10:53;65.85;;;19.20;;
59555;SDS011;45374;52.746;6.304;2022-10-22T07:13:19;60.65;;;18.48;;
59555;SDS011;45374;52.746;6.304;2022-10-22T07:15:45;56.30;;;17.33;;
59555;SDS011;45374;52.746;6.304;2022-10-22T07:18:15;59.92;;;18.13;;
59555;SDS011;45374;52.746;6.304;2022-10-22T07:20:41;60.20;;;17.27;;
59555;SDS011;45374;52.746;6.304;2022-10-22T07:23:06;65.18;;;16.98;;
59555;SDS011;45374;52.746;6.304;2022-10-22T07:25:32;54.50;;;16.50;;
59555;SDS011;45374;52.746;6.304;2022-10-22T07:27:57;52.53;;;16.95;;
59555;SDS011;45374;52.746;6.304;2022-10-22T07:30:23;52.95;;;16.50;;
59555;SDS011;45374;52.746;6.304;2022-10-22T07:32:49;59.83;;;16.27;;
59555;SDS011;45374;52.746;6.304;2022-10-22T07:35:14;55.65;;;16.60;;
59555;SDS011;45374;52.746;6.304;2022-10-22T07:37:40;42.28;;;14.52;;
59555;SDS011;45374;52.746;6.304;2022-10-22T07:40:05;58.92;;;16.95;;
59555;SDS011;45374;52.746;6.304;2022-10-22T07:42:32;50.67;;;14.73;;
59555;SDS011;45374;52.746;6.304;2022-10-22T07:44:57;53.22;;;16.92;;
59555;SDS011;45374;52.746;6.304;2022-10-22T07:47:23;47.70;;;15.80;;
59555;SDS011;45374;52.746;6.304;2022-10-22T07:49:48;59.60;;;17.42;;
59555;SDS011;45374;52.746;6.304;2022-10-22T07:52:14;53.25;;;15.52;;
59555;SDS011;45374;52.746;6.304;2022-10-22T07:54:39;55.55;;;16.17;;
59555;SDS011;45374;52.746;6.304;2022-10-22T07:57:05;51.50;;;15.48;;
59555;SDS011;45374;52.746;6.304;2022-10-22T07:59:31;58.88;;;15.13;;
59555;SDS011;45374;52.746;6.304;2022-10-22T08:01:56;55.92;;;15.70;;
59555;SDS011;45374;52.746;6.304;2022-10-22T08:04:22;55.85;;;15.75;;
59555;SDS011;45374;52.746;6.304;2022-10-22T08:06:47;52.10;;;15.68;;
59555;SDS011;45374;52.746;6.304;2022-10-22T08:09:13;48.65;;;14.77;;
59555;SDS011;45374;52.746;6.304;2022-10-22T08:11:38;51.85;;;14.98;;
59555;SDS011;45374;52.746;6.304;2022-10-22T08:14:04;48.95;;;14.88;;
59555;SDS011;45374;52.746;6.304;2022-10-22T08:16:30;50.58;;;14.02;;
59555;SDS011;45374;52.746;6.304;2022-10-22T08:18:55;48.58;;;14.35;;
59555;SDS011;45374;52.746;6.304;2022-10-22T08:21:21;51.40;;;13.93;;
59555;SDS011;45374;52.746;6.304;2022-10-22T08:23:46;47.65;;;13.52;;
59555;SDS011;45374;52.746;6.304;2022-10-22T08:26:12;50.05;;;15.32;;
59555;SDS011;45374;52.746;6.304;2022-10-22T08:28:38;61.50;;;14.80;;
59555;SDS011;45374;52.746;6.304;2022-10-22T08:31:04;55.50;;;14.48;;
59555;SDS011;45374;52.746;6.304;2022-10-22T08:33:31;57.20;;;15.10;;
59555;SDS011;45374;52.746;6.304;2022-10-22T08:35:57;42.10;;;13.32;;
59555;SDS011;45374;52.746;6.304;2022-10-22T08:38:23;55.95;;;14.20;;
59555;SDS011;45374;52.746;6.304;2022-10-22T08:40:53;50.88;;;14.18;;
59555;SDS011;45374;52.746;6.304;2022-10-22T08:48:47;50.95;;;13.88;;
59555;SDS011;45374;52.746;6.304;2022-10-22T08:51:16;55.78;;;13.20;;
59555;SDS011;45374;52.746;6.304;2022-10-22T08:54:02;46.20;;;12.82;;
59555;SDS011;45374;52.746;6.304;2022-10-22T08:57:18;47.75;;;13.15;;
59555;SDS011;45374;52.746;6.304;2022-10-22T09:02:30;48.13;;;12.55;;
59555;SDS011;45374;52.746;6.304;2022-10-22T09:07:56;42.10;;;12.00;;
59555;SDS011;45374;52.746;6.304;2022-10-22T09:10:23;48.33;;;12.55;;
59555;SDS011;45374;52.746;6.304;2022-10-22T09:12:53;41.20;;;11.20;;
59555;SDS011;45374;52.746;6.304;2022-10-22T09:15:18;35.75;;;11.75;;
59555;SDS011;45374;52.746;6.304;2022-10-22T09:21:05;43.40;;;10.98;;
59555;SDS011;45374;52.746;6.304;2022-10-22T09:23:48;39.22;;;11.27;;
59555;SDS011;45374;52.746;6.304;2022-10-22T09:26:29;40.88;;;11.57;;
59555;SDS011;45374;52.746;6.304;2022-10-22T09:28:59;35.47;;;10.32;;
59555;SDS011;45374;52.746;6.304;2022-10-22T09:31:25;48.42;;;11.40;;
59555;SDS011;45374;52.746;6.304;2022-10-22T09:33:55;46.20;;;10.88;;
59555;SDS011;45374;52.746;6.304;2022-10-22T09:36:23;50.53;;;11.57;;
59555;SDS011;45374;52.746;6.304;2022-10-22T09:38:52;50.70;;;12.15;;
59555;SDS011;45374;52.746;6.304;2022-10-22T09:41:18;42.45;;;10.82;;
59555;SDS011;45374;52.746;6.304;2022-10-22T09:43:47;47.38;;;12.75;;
59555;SDS011;45374;52.746;6.304;2022-10-22T09:46:18;47.42;;;12.77;;
59555;SDS011;45374;52.746;6.304;2022-10-22T09:53:47;52.08;;;13.15;;
59555;SDS011;45374;52.746;6.304;2022-10-22T09:56:35;46.65;;;12.50;;
59555;SDS011;45374;52.746;6.304;2022-10-22T09:59:16;33.53;;;12.02;;
59555;SDS011;45374;52.746;6.304;2022-10-22T10:01:54;42.25;;;12.35;;
59555;SDS011;45374;52.746;6.304;2022-10-22T10:04:21;45.00;;;12.50;;
59555;SDS011;45374;52.746;6.304;2022-10-22T10:06:52;50.00;;;13.70;;
59555;SDS011;45374;52.746;6.304;2022-10-22T10:09:23;50.70;;;13.10;;
59555;SDS011;45374;52.746;6.304;2022-10-22T10:14:47;42.95;;;14.40;;
59555;SDS011;45374;52.746;6.304;2022-10-22T10:22:41;47.67;;;15.88;;
59555;SDS011;45374;52.746;6.304;2022-10-22T10:25:27;51.92;;;16.08;;
59555;SDS011;45374;52.746;6.304;2022-10-22T10:33:39;47.58;;;17.00;;
59555;SDS011;45374;52.746;6.304;2022-10-22T10:36:28;50.30;;;16.42;;
59555;SDS011;45374;52.746;6.304;2022-10-22T10:39:11;61.83;;;18.35;;
59555;SDS011;45374;52.746;6.304;2022-10-22T10:41:54;58.92;;;18.20;;
59555;SDS011;45374;52.746;6.304;2022-10-22T10:47:35;66.35;;;19.50;;
59555;SDS011;45374;52.746;6.304;2022-10-22T10:53:34;57.60;;;18.10;;
59555;SDS011;45374;52.746;6.304;2022-10-22T10:59:27;54.80;;;17.38;;
59555;SDS011;45374;52.746;6.304;2022-10-22T11:02:09;57.80;;;17.60;;
59555;SDS011;45374;52.746;6.304;2022-10-22T11:07:33;53.35;;;18.00;;
59555;SDS011;45374;52.746;6.304;2022-10-22T11:10:47;55.80;;;16.77;;
59555;SDS011;45374;52.746;6.304;2022-10-22T11:13:35;54.50;;;17.58;;
59555;SDS011;45374;52.746;6.304;2022-10-22T11:18:53;58.33;;;17.75;;
59555;SDS011;45374;52.746;6.304;2022-10-22T11:24:25;54.80;;;16.92;;
59555;SDS011;45374;52.746;6.304;2022-10-22T11:30:22;40.92;;;15.50;;
59555;SDS011;45374;52.746;6.304;2022-10-22T11:32:53;50.53;;;16.80;;
59555;SDS011;45374;52.746;6.304;2022-10-22T11:35:31;55.88;;;16.38;;
59555;SDS011;45374;52.746;6.304;2022-10-22T11:38:03;52.47;;;15.52;;
59555;SDS011;45374;52.746;6.304;2022-10-22T11:40:32;45.17;;;15.23;;
59555;SDS011;45374;52.746;6.304;2022-10-22T11:43:07;42.55;;;14.65;;
59555;SDS011;45374;52.746;6.304;2022-10-22T11:45:36;47.80;;;15.52;;
59555;SDS011;45374;52.746;6.304;2022-10-22T11:53:20;52.55;;;15.02;;
59555;SDS011;45374;52.746;6.304;2022-10-22T11:55:52;47.80;;;16.65;;
59555;SDS011;45374;52.746;6.304;2022-10-22T11:58:28;43.85;;;14.70;;
59555;SDS011;45374;52.746;6.304;2022-10-22T12:17:02;42.92;;;14.02;;
59555;SDS011;45374;52.746;6.304;2022-10-22T12:19:58;41.47;;;14.45;;
59555;SDS011;45374;52.746;6.304;2022-10-22T12:22:28;49.75;;;13.98;;
59555;SDS011;45374;52.746;6.304;2022-10-22T12:24:58;41.03;;;13.82;;
59555;SDS011;45374;52.746;6.304;2022-10-22T12:27:36;35.63;;;13.90;;
59555;SDS011;45374;52.746;6.304;2022-10-22T12:30:16;45.50;;;14.20;;
59555;SDS011;45374;52.746;6.304;2022-10-22T12:32:45;37.72;;;13.57;;
59555;SDS011;45374;52.746;6.304;2022-10-22T12:35:15;45.28;;;13.63;;
59555;SDS011;45374;52.746;6.304;2022-10-22T12:37:43;34.28;;;13.32;;
59555;SDS011;45374;52.746;6.304;2022-10-22T12:40:22;34.17;;;12.70;;
59555;SDS011;45374;52.746;6.304;2022-10-22T12:42:57;41.60;;;12.10;;
59555;SDS011;45374;52.746;6.304;2022-10-22T12:45:25;46.20;;;13.18;;
59555;SDS011;45374;52.746;6.304;2022-10-22T12:47:59;39.38;;;12.10;;
59555;SDS011;45374;52.746;6.304;2022-10-22T12:50:31;40.75;;;11.23;;
59555;SDS011;45374;52.746;6.304;2022-10-22T12:53:01;42.40;;;12.23;;
59555;SDS011;45374;52.746;6.304;2022-10-22T12:55:28;37.65;;;12.55;;
59555;SDS011;45374;52.746;6.304;2022-10-22T12:57:57;49.00;;;12.50;;
59555;SDS011;45374;52.746;6.304;2022-10-22T13:00:24;35.80;;;12.40;;
59555;SDS011;45374;52.746;6.304;2022-10-22T13:02:52;37.38;;;12.40;;
59555;SDS011;45374;52.746;6.304;2022-10-22T13:05:22;36.50;;;12.75;;
59555;SDS011;45374;52.746;6.304;2022-10-22T13:07:53;41.97;;;12.77;;
59555;SDS011;45374;52.746;6.304;2022-10-22T13:10:31;163.55;;;46.25;;
59555;SDS011;45374;52.746;6.304;2022-10-22T13:12:58;181.73;;;56.88;;
59555;SDS011;45374;52.746;6.304;2022-10-22T13:17:59;47.95;;;17.38;;
59555;SDS011;45374;52.746;6.304;2022-10-22T13:20:50;77.00;;;26.77;;
59555;SDS011;45374;52.746;6.304;2022-10-22T13:23:17;44.60;;;13.98;;
59555;SDS011;45374;52.746;6.304;2022-10-22T13:25:54;40.20;;;12.90;;
59555;SDS011;45374;52.746;6.304;2022-10-22T13:28:35;38.35;;;14.90;;
59555;SDS011;45374;52.746;6.304;2022-10-22T13:31:07;36.92;;;13.65;;
59555;SDS011;45374;52.746;6.304;2022-10-22T13:33:39;42.05;;;14.40;;
59555;SDS011;45374;52.746;6.304;2022-10-22T13:36:07;42.08;;;14.27;;
59555;SDS011;45374;52.746;6.304;2022-10-22T13:38:38;42.10;;;14.52;;
59555;SDS011;45374;52.746;6.304;2022-10-22T13:41:04;45.55;;;15.25;;
59555;SDS011;45374;52.746;6.304;2022-10-22T13:43:41;54.80;;;14.77;;
59555;SDS011;45374;52.746;6.304;2022-10-22T13:46:07;37.05;;;13.35;;
59555;SDS011;45374;52.746;6.304;2022-10-22T13:48:33;47.45;;;14.27;;
59555;SDS011;45374;52.746;6.304;2022-10-22T13:50:59;48.03;;;13.15;;
59555;SDS011;45374;52.746;6.304;2022-10-22T13:53:25;41.33;;;12.98;;
59555;SDS011;45374;52.746;6.304;2022-10-22T13:55:52;45.33;;;13.30;;
59555;SDS011;45374;52.746;6.304;2022-10-22T13:58:19;47.47;;;13.50;;
59555;SDS011;45374;52.746;6.304;2022-10-22T14:00:54;39.20;;;10.90;;
59555;SDS011;45374;52.746;6.304;2022-10-22T14:03:23;37.40;;;11.40;;
59555;SDS011;45374;52.746;6.304;2022-10-22T14:05:55;37.22;;;11.50;;
59555;SDS011;45374;52.746;6.304;2022-10-22T14:08:21;44.15;;;11.98;;
59555;SDS011;45374;52.746;6.304;2022-10-22T14:10:49;38.65;;;10.43;;
59555;SDS011;45374;52.746;6.304;2022-10-22T14:13:16;40.90;;;9.90;;
59555;SDS011;45374;52.746;6.304;2022-10-22T14:15:43;37.85;;;10.75;;
59555;SDS011;45374;52.746;6.304;2022-10-22T14:18:11;34.20;;;8.70;;
59555;SDS011;45374;52.746;6.304;2022-10-22T14:20:48;32.65;;;8.32;;
59555;SDS011;45374;52.746;6.304;2022-10-22T14:23:16;33.20;;;7.65;;
59555;SDS011;45374;52.746;6.304;2022-10-22T14:25:44;35.38;;;7.07;;
59555;SDS011;45374;52.746;6.304;2022-10-22T14:28:10;37.50;;;6.70;;
59555;SDS011;45374;52.746;6.304;2022-10-22T14:30:36;37.03;;;6.75;;
59555;SDS011;45374;52.746;6.304;2022-10-22T14:33:17;32.10;;;5.72;;
59555;SDS011;45374;52.746;6.304;2022-10-22T14:35:48;34.13;;;4.68;;
59555;SDS011;45374;52.746;6.304;2022-10-22T14:38:14;31.60;;;5.00;;
59555;SDS011;45374;52.746;6.304;2022-10-22T14:40:40;43.60;;;4.68;;
59555;SDS011;45374;52.746;6.304;2022-10-22T14:43:11;33.13;;;4.28;;
59555;SDS011;45374;52.746;6.304;2022-10-22T14:45:42;37.17;;;4.57;;
59555;SDS011;45374;52.746;6.304;2022-10-22T14:48:07;42.00;;;5.43;;
59555;SDS011;45374;52.746;6.304;2022-10-22T14:50:33;55.38;;;5.20;;
59555;SDS011;45374;52.746;6.304;2022-10-22T14:52:59;37.83;;;5.20;;
59555;SDS011;45374;52.746;6.304;2022-10-22T14:55:24;37.70;;;4.90;;
59555;SDS011;45374;52.746;6.304;2022-10-22T14:57:51;43.85;;;4.80;;
59555;SDS011;45374;52.746;6.304;2022-10-22T15:00:18;44.00;;;4.38;;
59555;SDS011;45374;52.746;6.304;2022-10-22T15:02:44;31.58;;;3.90;;
59555;SDS011;45374;52.746;6.304;2022-10-22T15:05:10;46.00;;;6.53;;
59555;SDS011;45374;52.746;6.304;2022-10-22T15:07:36;47.85;;;4.78;;
59555;SDS011;45374;52.746;6.304;2022-10-22T15:10:02;43.83;;;4.55;;
59555;SDS011;45374;52.746;6.304;2022-10-22T15:12:29;39.55;;;4.25;;
59555;SDS011;45374;52.746;6.304;2022-10-22T15:14:54;42.75;;;4.70;;
59555;SDS011;45374;52.746;6.304;2022-10-22T15:17:20;45.92;;;4.88;;
59555;SDS011;45374;52.746;6.304;2022-10-22T15:19:45;51.53;;;5.03;;
59555;SDS011;45374;52.746;6.304;2022-10-22T15:22:11;45.30;;;5.28;;
59555;SDS011;45374;52.746;6.304;2022-10-22T15:24:37;46.90;;;5.80;;
59555;SDS011;45374;52.746;6.304;2022-10-22T15:27:04;34.75;;;4.97;;
59555;SDS011;45374;52.746;6.304;2022-10-22T15:29:30;35.05;;;4.70;;
59555;SDS011;45374;52.746;6.304;2022-10-22T15:31:59;41.70;;;4.60;;
59555;SDS011;45374;52.746;6.304;2022-10-22T15:36:52;45.55;;;5.22;;
59555;SDS011;45374;52.746;6.304;2022-10-22T15:39:19;35.08;;;4.55;;
59555;SDS011;45374;52.746;6.304;2022-10-22T15:41:46;39.88;;;5.32;;
59555;SDS011;45374;52.746;6.304;2022-10-22T15:44:16;35.40;;;4.80;;
59555;SDS011;45374;52.746;6.304;2022-10-22T15:46:46;40.45;;;5.35;;
59555;SDS011;45374;52.746;6.304;2022-10-22T15:49:12;29.33;;;4.65;;
59555;SDS011;45374;52.746;6.304;2022-10-22T15:51:39;36.78;;;4.60;;
59555;SDS011;45374;52.746;6.304;2022-10-22T15:54:04;37.60;;;5.18;;
59555;SDS011;45374;52.746;6.304;2022-10-22T15:56:31;42.45;;;6.45;;
59555;SDS011;45374;52.746;6.304;2022-10-22T15:58:58;28.33;;;4.75;;
59555;SDS011;45374;52.746;6.304;2022-10-22T16:01:26;43.70;;;5.53;;
59555;SDS011;45374;52.746;6.304;2022-10-22T16:03:52;47.45;;;5.40;;
59555;SDS011;45374;52.746;6.304;2022-10-22T16:06:24;36.95;;;5.00;;
59555;SDS011;45374;52.746;6.304;2022-10-22T16:08:51;33.70;;;5.50;;
59555;SDS011;45374;52.746;6.304;2022-10-22T16:11:18;43.20;;;5.93;;
59555;SDS011;45374;52.746;6.304;2022-10-22T16:13:44;32.55;;;4.95;;
59555;SDS011;45374;52.746;6.304;2022-10-22T16:16:10;35.40;;;4.82;;
59555;SDS011;45374;52.746;6.304;2022-10-22T16:18:35;31.20;;;4.50;;